createdAt,value
2023-11-25T00:02:43.091Z,96383.06
2023-11-25T00:05:28.275Z,96382.53
2023-11-25T00:08:13.381Z,96374.34
2023-11-25T00:10:58.541Z,96367.81
2023-11-25T00:13:46.867Z,96372.97
2023-11-25T00:16:32.072Z,96372.22
2023-11-25T00:19:17.107Z,96360.53
2023-11-25T00:22:02.275Z,96365.09
2023-11-25T00:24:47.422Z,96362.75
2023-11-25T00:27:32.645Z,96348.41
2023-11-25T00:30:18.141Z,96363.91
2023-11-25T00:33:03.397Z,96363.09
2023-11-25T00:35:48.480Z,96370.72
2023-11-25T00:38:33.374Z,96382.16
2023-11-25T00:41:18.392Z,96380.41
2023-11-25T00:44:03.618Z,96374.91
2023-11-25T00:46:48.693Z,96373.59
2023-11-25T00:49:33.758Z,96370.44
2023-11-25T00:52:18.647Z,96378.41
2023-11-25T00:55:03.618Z,96373.44
2023-11-25T00:57:48.683Z,96379.81
2023-11-25T01:00:34.135Z,96393.66
2023-11-25T01:03:22.446Z,96390.59
2023-11-25T01:06:08.035Z,96406.03
2023-11-25T01:08:58.015Z,96406.44
2023-11-25T01:11:43.354Z,96398.75
2023-11-25T01:14:30.788Z,96393.94
2023-11-25T01:17:15.921Z,96386.56
2023-11-25T01:20:01.491Z,96394.47
2023-11-25T01:22:46.954Z,96391.50
2023-11-25T01:25:33.210Z,96394.25
2023-11-25T01:28:24.688Z,96400.88
2023-11-25T01:31:13.121Z,96408.91
2023-11-25T01:33:58.424Z,96414.03
2023-11-25T01:36:44.548Z,96417.50
2023-11-25T01:39:30.450Z,96421.50
2023-11-25T01:42:15.923Z,96424.75
2023-11-25T01:45:01.238Z,96420.19
2023-11-25T01:47:49.288Z,96429.25
2023-11-25T01:50:34.414Z,96426.13
2023-11-25T01:53:19.485Z,96431.75
2023-11-25T01:56:05.337Z,96437.59
2023-11-25T01:58:54.932Z,96433.00
2023-11-25T02:01:40.298Z,96434.66
2023-11-25T02:04:28.514Z,96433.88
2023-11-25T02:07:18.706Z,96428.19
2023-11-25T02:10:04.036Z,96426.59
2023-11-25T02:12:49.240Z,96420.94
2023-11-25T02:15:37.381Z,96421.19
2023-11-25T02:18:24.023Z,96427.63
2023-11-25T02:21:12.373Z,96436.09
2023-11-25T02:23:57.752Z,96435.41
2023-11-25T02:26:45.888Z,96411.66
2023-11-25T02:29:30.654Z,96417.09
2023-11-25T02:32:17.641Z,96428.03
2023-11-25T02:35:03.876Z,96428.00
2023-11-25T02:37:50.517Z,96422.19
2023-11-25T02:40:36.562Z,96417.13
2023-11-25T02:43:22.298Z,96414.34
2023-11-25T02:46:11.011Z,96414.34
2023-11-25T02:49:00.563Z,96410.72
2023-11-25T02:51:49.432Z,96399.41
2023-11-25T02:57:39.933Z,96401.47
2023-11-25T03:00:27.534Z,96414.53
2023-11-25T03:03:16.194Z,96414.97
2023-11-25T03:06:03.858Z,96408.75
2023-11-25T03:08:49.037Z,96406.91
2023-11-25T03:11:35.755Z,96405.28
2023-11-25T03:14:23.806Z,96407.22
2023-11-25T03:17:11.313Z,96408.22
2023-11-25T03:19:56.943Z,96406.63
2023-11-25T03:22:42.144Z,96409.72
2023-11-25T03:25:29.604Z,96415.38
2023-11-25T03:28:16.844Z,96414.34
2023-11-25T03:31:04.096Z,96410.28
2023-11-25T03:33:52.447Z,96410.69
2023-11-25T03:36:37.757Z,96412.06
2023-11-25T03:39:33.175Z,96415.72
2023-11-25T03:42:18.512Z,96404.41
2023-11-25T03:45:08.066Z,96418.34
2023-11-25T03:47:57.734Z,96415.63
2023-11-25T03:50:43.179Z,96417.44
2023-11-25T03:53:37.632Z,96407.06
2023-11-25T03:56:39.417Z,96414.69
2023-11-25T03:59:24.917Z,96430.97
2023-11-25T04:02:11.786Z,96424.41
2023-11-25T04:05:10.488Z,96421.97
2023-11-25T04:07:59.177Z,96410.13
2023-11-25T04:10:44.748Z,96412.72
2023-11-25T04:13:37.433Z,96417.53
2023-11-25T04:16:23.000Z,96415.91
2023-11-25T04:19:14.866Z,96418.31
2023-11-25T04:22:00.430Z,96419.56
2023-11-25T04:27:57.177Z,96425.22
2023-11-25T04:30:43.732Z,96414.69
2023-11-25T04:33:29.209Z,96414.22
2023-11-25T04:36:16.266Z,96422.41
2023-11-25T04:39:04.805Z,96412.31
2023-11-25T04:42:02.618Z,96407.69
2023-11-25T04:44:49.838Z,96408.72
2023-11-25T04:50:35.640Z,96402.84
2023-11-25T04:53:25.318Z,96397.88
2023-11-25T04:59:24.200Z,96398.25
2023-11-25T05:02:23.502Z,96395.13
2023-11-25T05:07:38.420Z,96393.97
2023-11-25T05:08:20.207Z,96407.91
2023-11-25T05:11:16.898Z,96411.75
2023-11-25T05:14:05.538Z,96405.06
2023-11-25T05:16:54.145Z,96405.66
2023-11-25T05:19:45.471Z,96403.47
2023-11-25T05:22:31.008Z,96402.22
2023-11-25T05:25:16.402Z,96401.47
2023-11-25T05:28:03.203Z,96388.81
2023-11-25T05:30:54.803Z,96391.78
2023-11-25T05:33:41.466Z,96404.91
2023-11-25T05:36:34.997Z,96398.66
2023-11-25T05:39:20.368Z,96405.28
2023-11-25T05:42:07.901Z,96406.28
2023-11-25T05:44:53.158Z,96405.75
2023-11-25T05:47:38.683Z,96407.75
2023-11-25T05:50:23.765Z,96397.38
2023-11-25T05:56:11.248Z,96407.34
2023-11-25T05:58:59.396Z,96401.78
2023-11-25T06:01:47.352Z,96392.59
2023-11-25T06:04:37.040Z,96394.56
2023-11-25T06:07:22.254Z,96391.22
2023-11-25T06:10:10.135Z,96393.00
2023-11-25T06:12:58.678Z,96401.22
2023-11-25T06:15:48.551Z,96408.56
2023-11-25T06:18:33.959Z,96417.31
2023-11-25T06:21:25.624Z,96425.25
2023-11-25T06:24:12.120Z,96422.66
2023-11-25T06:27:13.994Z,96418.28
2023-11-25T06:30:01.045Z,96410.25
2023-11-25T06:32:55.539Z,96414.06
2023-11-25T06:35:43.696Z,96412.69
2023-11-25T06:38:32.407Z,96425.16
2023-11-25T06:41:23.453Z,96443.28
2023-11-25T06:44:14.595Z,96438.50
2023-11-25T06:47:04.920Z,96445.72
2023-11-25T06:49:53.386Z,96448.13
2023-11-25T06:52:57.523Z,96452.94
2023-11-25T06:58:51.998Z,96461.59
2023-11-25T07:01:37.207Z,96473.28
2023-11-25T07:04:22.078Z,96477.38
2023-11-25T07:07:07.166Z,96477.47
2023-11-25T07:09:52.405Z,96489.56
2023-11-25T07:12:37.146Z,96488.28
2023-11-25T07:15:22.347Z,96483.09
2023-11-25T07:18:07.572Z,96492.31
2023-11-25T07:20:55.798Z,96495.94
2023-11-25T07:23:41.417Z,96502.56
2023-11-25T07:26:26.577Z,96506.47
2023-11-25T07:29:12.117Z,96499.66
2023-11-25T07:31:57.130Z,96505.63
2023-11-25T07:34:42.241Z,96511.59
2023-11-25T07:37:27.385Z,96514.09
2023-11-25T07:40:12.491Z,96517.03
2023-11-25T07:42:57.684Z,96529.25
2023-11-25T07:45:42.885Z,96529.81
2023-11-25T07:48:28.259Z,96532.34
2023-11-25T07:51:13.500Z,96525.19
2023-11-25T07:54:00.101Z,96530.72
2023-11-25T07:56:45.204Z,96542.78
2023-11-25T07:59:30.557Z,96544.88
2023-11-25T08:02:15.480Z,96542.50
2023-11-25T08:05:00.545Z,96543.06
2023-11-25T08:07:45.514Z,96549.94
2023-11-25T08:10:30.682Z,96541.09
2023-11-25T08:13:15.896Z,96543.09
2023-11-25T08:16:01.228Z,96533.59
2023-11-25T08:18:47.303Z,96543.84
2023-11-25T08:21:32.586Z,96544.59
2023-11-25T08:24:17.649Z,96540.53
2023-11-25T08:27:02.459Z,96552.56
2023-11-25T08:29:47.629Z,96551.00
2023-11-25T08:32:33.120Z,96554.50
2023-11-25T08:35:18.328Z,96554.28
2023-11-25T08:38:03.513Z,96555.94
2023-11-25T08:40:48.751Z,96557.41
2023-11-25T08:43:34.018Z,96554.50
2023-11-25T08:46:19.179Z,96559.69
2023-11-25T08:49:04.347Z,96563.81
2023-11-25T08:51:49.637Z,96563.53
2023-11-25T08:54:34.642Z,96566.69
2023-11-25T08:57:19.959Z,96566.81
2023-11-25T09:00:05.199Z,96571.88
2023-11-25T09:02:50.202Z,96574.53
2023-11-25T09:05:35.476Z,96569.34
2023-11-25T09:08:20.243Z,96574.13
2023-11-25T09:11:05.554Z,96574.66
2023-11-25T09:13:50.904Z,96582.53
2023-11-25T09:16:36.048Z,96583.38
2023-11-25T09:19:21.687Z,96579.75
2023-11-25T09:22:06.446Z,96584.34
2023-11-25T09:24:51.752Z,96592.56
2023-11-25T09:27:37.063Z,96587.31
2023-11-25T09:30:22.304Z,96580.34
2023-11-25T09:33:07.522Z,96585.09
2023-11-25T09:35:52.544Z,96591.72
2023-11-25T09:38:37.854Z,96598.97
2023-11-25T09:41:22.997Z,96601.91
2023-11-25T09:44:08.267Z,96605.88
2023-11-25T09:46:53.656Z,96590.94
2023-11-25T09:49:38.764Z,96613.66
2023-11-25T09:52:23.826Z,96613.72
2023-11-25T09:55:08.804Z,96617.00
2023-11-25T09:57:54.088Z,96617.03
2023-11-25T10:00:39.211Z,96622.22
2023-11-25T10:03:24.432Z,96622.56
2023-11-25T10:06:09.624Z,96627.78
2023-11-25T10:08:54.423Z,96636.28
2023-11-25T10:11:39.552Z,96625.47
2023-11-25T10:14:24.652Z,96632.81
2023-11-25T10:17:09.802Z,96631.25
2023-11-25T10:19:54.950Z,96634.09
2023-11-25T10:22:40.143Z,96631.22
2023-11-25T10:25:24.991Z,96625.97
2023-11-25T10:28:10.097Z,96625.47
2023-11-25T10:30:55.368Z,96629.09
2023-11-25T10:33:40.442Z,96629.13
2023-11-25T10:36:26.110Z,96626.19
2023-11-25T10:39:11.176Z,96621.75
2023-11-25T10:41:56.477Z,96624.28
2023-11-25T10:44:41.325Z,96608.25
2023-11-25T10:47:26.599Z,96610.81
2023-11-25T10:50:12.038Z,96612.03
2023-11-25T10:52:57.247Z,96617.34
2023-11-25T10:55:42.493Z,96610.06
2023-11-25T10:58:27.718Z,96607.38
2023-11-25T11:01:12.688Z,96599.34
2023-11-25T11:03:57.612Z,96605.31
2023-11-25T11:06:42.712Z,96604.16
2023-11-25T11:09:27.959Z,96608.34
2023-11-25T11:12:12.837Z,96601.03
2023-11-25T11:14:57.792Z,96595.88
2023-11-25T11:17:42.665Z,96594.72
2023-11-25T11:20:27.688Z,96592.41
2023-11-25T11:23:12.890Z,96584.88
2023-11-25T11:25:57.734Z,96585.78
2023-11-25T11:28:42.842Z,96589.47
2023-11-25T11:31:27.996Z,96593.25
2023-11-25T11:34:13.103Z,96589.94
2023-11-25T11:36:58.211Z,96585.50
2023-11-25T11:39:43.467Z,96577.81
2023-11-25T11:42:28.710Z,96580.13
2023-11-25T11:45:13.766Z,96594.22
2023-11-25T11:47:58.905Z,96594.94
2023-11-25T11:50:43.959Z,96580.63
2023-11-25T11:53:29.136Z,96591.19
2023-11-25T11:56:14.201Z,96584.69
2023-11-25T11:58:59.305Z,96583.91
2023-11-25T12:01:44.583Z,96576.69
2023-11-25T12:04:29.394Z,96580.94
2023-11-25T12:07:14.511Z,96580.31
2023-11-25T12:10:00.031Z,96587.59
2023-11-25T12:12:45.365Z,96582.59
2023-11-25T12:15:30.183Z,96578.69
2023-11-25T12:18:15.507Z,96586.31
2023-11-25T12:21:00.315Z,96579.88
2023-11-25T12:23:52.037Z,96582.25
2023-11-25T12:26:37.617Z,96579.84
2023-11-25T12:29:22.795Z,96584.06
2023-11-25T12:32:08.456Z,96575.94
2023-11-25T12:34:57.418Z,96583.75
2023-11-25T12:37:43.950Z,96585.03
2023-11-25T12:40:30.552Z,96585.25
2023-11-25T12:43:16.377Z,96586.38
2023-11-25T12:46:01.482Z,96595.75
2023-11-25T12:48:47.355Z,96599.72
2023-11-25T12:51:32.715Z,96595.56
2023-11-25T12:54:19.064Z,96598.25
2023-11-25T12:57:04.347Z,96591.53
2023-11-25T12:59:49.189Z,96594.00
2023-11-25T13:02:41.280Z,96595.66
2023-11-25T13:05:26.456Z,96602.66
2023-11-25T13:08:11.720Z,96600.59
2023-11-25T13:10:56.676Z,96609.91
2023-11-25T13:13:41.757Z,96616.91
2023-11-25T13:16:27.545Z,96613.78
2023-11-25T13:19:12.717Z,96614.53
2023-11-25T13:21:57.837Z,96606.66
2023-11-25T13:24:42.800Z,96609.28
2023-11-25T13:27:27.957Z,96609.91
2023-11-25T13:30:13.015Z,96606.72
2023-11-25T13:32:58.238Z,96612.84
2023-11-25T13:35:43.360Z,96614.16
2023-11-25T13:38:28.481Z,96610.78
2023-11-25T13:41:13.738Z,96618.91
2023-11-25T13:43:59.036Z,96620.34
2023-11-25T13:46:44.271Z,96621.47
2023-11-25T13:49:29.425Z,96608.06
2023-11-25T13:52:14.888Z,96611.31
2023-11-25T13:54:59.786Z,96621.00
2023-11-25T13:57:45.013Z,96622.03
2023-11-25T14:00:30.222Z,96623.84
2023-11-25T14:03:15.837Z,96624.31
2023-11-25T14:06:01.317Z,96624.16
2023-11-25T14:08:46.730Z,96635.03
2023-11-25T14:11:32.500Z,96631.38
2023-11-25T14:14:17.695Z,96630.84
2023-11-25T14:17:15.652Z,96643.31
2023-11-25T14:20:01.413Z,96640.69
2023-11-25T14:22:46.914Z,96640.53
2023-11-25T14:25:31.994Z,96628.66
2023-11-25T14:28:17.430Z,96629.97
2023-11-25T14:31:03.042Z,96628.06
2023-11-25T14:33:47.961Z,96621.25
2023-11-25T14:36:33.136Z,96619.28
2023-11-25T14:39:18.333Z,96624.00
2023-11-25T14:42:03.615Z,96626.31
2023-11-25T14:44:51.122Z,96619.69
2023-11-25T14:47:36.286Z,96625.59
2023-11-25T14:50:21.410Z,96621.53
2023-11-25T14:53:06.225Z,96623.50
2023-11-25T14:55:51.936Z,96620.72
2023-11-25T14:58:37.101Z,96627.75
2023-11-25T15:01:22.247Z,96631.84
2023-11-25T15:04:08.567Z,96633.16
2023-11-25T15:06:54.061Z,96628.59
2023-11-25T15:09:39.159Z,96632.53
2023-11-25T15:12:27.445Z,96640.31
2023-11-25T15:15:12.510Z,96630.94
2023-11-25T15:17:57.800Z,96632.25
2023-11-25T15:20:42.789Z,96639.09
2023-11-25T15:23:28.206Z,96634.41
2023-11-25T15:26:13.196Z,96626.00
2023-11-25T15:28:58.245Z,96624.34
2023-11-25T15:31:43.768Z,96631.94
2023-11-25T15:34:28.967Z,96619.84
2023-11-25T15:37:14.850Z,96623.72
2023-11-25T15:39:59.903Z,96624.34
2023-11-25T15:42:49.519Z,96618.91
2023-11-25T15:45:35.828Z,96622.63
2023-11-25T15:48:21.187Z,96625.19
2023-11-25T15:51:06.116Z,96618.25
2023-11-25T15:53:54.931Z,96615.94
2023-11-25T15:56:40.142Z,96620.28
2023-11-25T15:59:25.667Z,96614.41
2023-11-25T16:02:11.229Z,96622.91
2023-11-25T16:04:56.166Z,96613.91
2023-11-25T16:07:41.713Z,96627.38
2023-11-25T16:10:26.981Z,96626.34
2023-11-25T16:13:12.242Z,96634.13
2023-11-25T16:15:57.564Z,96631.13
2023-11-25T16:18:42.670Z,96632.72
2023-11-25T16:21:27.759Z,96639.88
2023-11-25T16:24:13.068Z,96643.28
2023-11-25T16:26:58.179Z,96639.59
2023-11-25T16:29:43.319Z,96643.97
2023-11-25T16:32:28.529Z,96639.75
2023-11-25T16:35:14.710Z,96638.72
2023-11-25T16:37:59.629Z,96642.75
2023-11-25T16:40:44.915Z,96641.53
2023-11-25T16:43:29.992Z,96644.22
2023-11-25T16:46:15.437Z,96650.94
2023-11-25T16:49:07.509Z,96653.78
2023-11-25T16:51:55.698Z,96655.31
2023-11-25T16:54:44.298Z,96661.13
2023-11-25T16:57:33.176Z,96656.75
2023-11-25T17:00:20.021Z,96662.00
2023-11-25T17:03:15.914Z,96662.34
2023-11-25T17:06:06.493Z,96666.81
2023-11-25T17:08:55.457Z,96672.31
2023-11-25T17:11:45.621Z,96671.97
2023-11-25T17:20:53.237Z,96670.31
2023-11-25T17:29:50.027Z,96678.47
2023-11-25T17:32:45.034Z,96690.75
2023-11-25T17:35:32.197Z,96675.31
2023-11-25T17:38:32.881Z,96684.31
2023-11-25T17:41:20.919Z,96675.78
2023-11-25T17:44:14.515Z,96688.41
2023-11-25T17:50:02.648Z,96690.44
2023-11-25T17:52:52.054Z,96690.25
2023-11-25T17:55:38.555Z,96699.34
2023-11-25T17:58:24.808Z,96691.97
2023-11-25T18:01:10.746Z,96695.94
2023-11-25T18:03:56.713Z,96694.25
2023-11-25T18:06:42.621Z,96699.75
2023-11-25T18:09:27.872Z,96702.38
2023-11-25T18:12:13.215Z,96707.03
2023-11-25T18:14:58.296Z,96715.69
2023-11-25T18:17:43.570Z,96719.47
2023-11-25T18:20:31.186Z,96705.22
2023-11-25T18:23:16.563Z,96705.31
2023-11-25T18:26:01.673Z,96704.66
2023-11-25T18:28:47.840Z,96702.56
2023-11-25T18:31:32.903Z,96703.88
2023-11-25T18:34:18.019Z,96697.03
2023-11-25T18:37:03.057Z,96702.56
2023-11-25T18:39:50.214Z,96702.47
2023-11-25T18:42:36.876Z,96698.53
2023-11-25T18:45:23.214Z,96704.13
2023-11-25T18:48:08.886Z,96709.25
2023-11-25T18:50:54.685Z,96716.88
2023-11-25T18:53:39.877Z,96713.22
2023-11-25T18:56:25.296Z,96718.00
2023-11-25T18:59:13.055Z,96724.16
2023-11-25T19:01:58.839Z,96725.69
2023-11-25T19:04:46.859Z,96726.00
2023-11-25T19:07:32.354Z,96730.88
2023-11-25T19:10:17.993Z,96739.56
2023-11-25T19:13:03.312Z,96745.19
2023-11-25T19:15:48.866Z,96741.00
2023-11-25T19:18:37.389Z,96744.81
2023-11-25T19:21:22.972Z,96756.97
2023-11-25T19:24:09.847Z,96749.31
2023-11-25T19:26:55.114Z,96766.06
2023-11-25T19:29:40.140Z,96761.69
2023-11-25T19:32:25.561Z,96763.03
2023-11-25T19:35:11.621Z,96768.63
2023-11-25T19:37:56.604Z,96767.59
2023-11-25T19:40:41.584Z,96773.50
2023-11-25T19:43:26.956Z,96783.25
2023-11-25T19:46:14.002Z,96782.41
2023-11-25T19:48:59.299Z,96772.91
2023-11-25T19:51:44.687Z,96765.47
2023-11-25T19:57:16.664Z,96772.09
2023-11-25T20:00:08.748Z,96765.28
2023-11-25T20:03:05.143Z,96768.91
2023-11-25T20:05:51.365Z,96774.84
2023-11-25T20:11:53.880Z,96772.41
2023-11-25T20:14:43.198Z,96774.47
2023-11-25T20:23:59.055Z,96781.44
2023-11-25T20:26:46.982Z,96782.25
2023-11-25T20:29:43.134Z,96779.00
2023-11-25T20:35:39.958Z,96779.59
2023-11-25T21:44:38.015Z,96780.38
2023-11-25T22:15:55.593Z,96766.56
2023-11-25T22:31:19.494Z,96786.66
2023-11-25T22:34:09.166Z,96789.03
2023-11-25T22:36:54.552Z,96781.00
2023-11-25T22:39:42.829Z,96786.31
2023-11-25T22:42:27.565Z,96783.81
2023-11-25T22:45:12.401Z,96789.44
2023-11-25T22:47:57.549Z,96788.19
2023-11-25T22:50:42.720Z,96792.50
2023-11-25T22:53:27.698Z,96792.31
2023-11-25T22:56:12.941Z,96794.50
2023-11-25T22:58:57.785Z,96791.00
2023-11-25T23:01:43.084Z,96795.91
2023-11-25T23:04:28.218Z,96789.50
2023-11-25T23:07:13.208Z,96782.63
2023-11-25T23:09:58.632Z,96786.06
2023-11-25T23:12:43.726Z,96787.47
2023-11-25T23:15:28.884Z,96780.63
2023-11-25T23:18:13.730Z,96780.22
2023-11-25T23:20:58.614Z,96784.22
2023-11-25T23:23:48.417Z,96779.59
2023-11-25T23:26:34.017Z,96782.84
2023-11-25T23:29:19.362Z,96784.63
2023-11-25T23:32:04.627Z,96783.41
2023-11-25T23:34:49.899Z,96788.03
2023-11-25T23:37:35.059Z,96794.53
2023-11-25T23:40:20.288Z,96790.66
2023-11-25T23:43:05.466Z,96795.53
2023-11-25T23:45:50.757Z,96782.41
2023-11-25T23:48:36.000Z,96781.78
2023-11-25T23:51:21.211Z,96785.03
2023-11-25T23:54:06.221Z,96790.06
2023-11-25T23:56:51.532Z,96785.66
2023-11-25T23:59:36.442Z,96787.25
